sensor_id;sensor_type;location;lat;lon;timestamp;P1;durP1;ratioP1;P2;durP2;ratioP2
64678;SDS011;51094;53.864;27.676;2022-11-20T00:01:25;6.03;;;5.93;;
64678;SDS011;51094;53.864;27.676;2022-11-20T00:03:53;6.10;;;6.00;;
64678;SDS011;51094;53.864;27.676;2022-11-20T00:06:21;5.88;;;5.78;;
64678;SDS011;51094;53.864;27.676;2022-11-20T00:08:49;5.72;;;5.63;;
64678;SDS011;51094;53.864;27.676;2022-11-20T00:11:17;6.10;;;6.00;;
64678;SDS011;51094;53.864;27.676;2022-11-20T00:13:46;6.20;;;6.10;;
64678;SDS011;51094;53.864;27.676;2022-11-20T00:16:15;6.25;;;6.15;;
64678;SDS011;51094;53.864;27.676;2022-11-20T00:18:44;5.82;;;5.72;;
64678;SDS011;51094;53.864;27.676;2022-11-20T00:21:12;5.70;;;5.60;;
64678;SDS011;51094;53.864;27.676;2022-11-20T00:23:41;6.55;;;6.40;;
64678;SDS011;51094;53.864;27.676;2022-11-20T00:26:10;5.63;;;5.53;;
64678;SDS011;51094;53.864;27.676;2022-11-20T00:28:38;5.63;;;5.53;;
64678;SDS011;51094;53.864;27.676;2022-11-20T00:31:06;5.65;;;5.55;;
64678;SDS011;51094;53.864;27.676;2022-11-20T00:33:35;5.13;;;5.03;;
64678;SDS011;51094;53.864;27.676;2022-11-20T00:36:06;5.47;;;5.38;;
64678;SDS011;51094;53.864;27.676;2022-11-20T00:38:34;5.70;;;5.60;;
64678;SDS011;51094;53.864;27.676;2022-11-20T00:41:02;5.47;;;5.38;;
64678;SDS011;51094;53.864;27.676;2022-11-20T00:43:31;5.20;;;5.10;;
64678;SDS011;51094;53.864;27.676;2022-11-20T00:46:01;5.60;;;5.50;;
64678;SDS011;51094;53.864;27.676;2022-11-20T00:48:30;5.10;;;5.00;;
64678;SDS011;51094;53.864;27.676;2022-11-20T00:50:57;4.93;;;4.82;;
64678;SDS011;51094;53.864;27.676;2022-11-20T00:53:24;4.78;;;4.68;;
64678;SDS011;51094;53.864;27.676;2022-11-20T00:58:32;4.50;;;4.40;;
64678;SDS011;51094;53.864;27.676;2022-11-20T01:01:04;4.78;;;4.68;;
64678;SDS011;51094;53.864;27.676;2022-11-20T01:03:40;4.60;;;4.50;;
64678;SDS011;51094;53.864;27.676;2022-11-20T01:06:16;4.85;;;4.75;;
64678;SDS011;51094;53.864;27.676;2022-11-20T01:08:45;4.75;;;4.65;;
64678;SDS011;51094;53.864;27.676;2022-11-20T01:11:16;4.20;;;4.10;;
64678;SDS011;51094;53.864;27.676;2022-11-20T01:13:46;4.38;;;4.28;;
64678;SDS011;51094;53.864;27.676;2022-11-20T01:16:15;4.60;;;4.50;;
64678;SDS011;51094;53.864;27.676;2022-11-20T01:18:42;3.25;;;3.25;;
64678;SDS011;51094;53.864;27.676;2022-11-20T01:21:12;3.10;;;3.10;;
64678;SDS011;51094;53.864;27.676;2022-11-20T01:23:44;3.40;;;3.40;;
64678;SDS011;51094;53.864;27.676;2022-11-20T01:26:13;3.67;;;3.67;;
64678;SDS011;51094;53.864;27.676;2022-11-20T01:28:41;4.28;;;4.18;;
64678;SDS011;51094;53.864;27.676;2022-11-20T01:31:16;3.58;;;3.58;;
64678;SDS011;51094;53.864;27.676;2022-11-20T01:33:51;3.60;;;3.60;;
64678;SDS011;51094;53.864;27.676;2022-11-20T01:36:20;3.15;;;3.15;;
64678;SDS011;51094;53.864;27.676;2022-11-20T01:38:52;3.92;;;3.83;;
64678;SDS011;51094;53.864;27.676;2022-11-20T01:41:20;3.50;;;3.50;;
64678;SDS011;51094;53.864;27.676;2022-11-20T01:44:06;3.78;;;3.67;;
64678;SDS011;51094;53.864;27.676;2022-11-20T01:46:34;3.83;;;3.80;;
64678;SDS011;51094;53.864;27.676;2022-11-20T01:49:11;3.55;;;3.45;;
64678;SDS011;51094;53.864;27.676;2022-11-20T01:51:53;3.70;;;3.70;;
64678;SDS011;51094;53.864;27.676;2022-11-20T01:54:26;3.20;;;3.20;;
64678;SDS011;51094;53.864;27.676;2022-11-20T01:57:00;2.78;;;2.78;;
64678;SDS011;51094;53.864;27.676;2022-11-20T01:59:30;2.90;;;2.90;;
64678;SDS011;51094;53.864;27.676;2022-11-20T02:01:57;3.10;;;3.00;;
64678;SDS011;51094;53.864;27.676;2022-11-20T02:04:24;3.08;;;3.08;;
64678;SDS011;51094;53.864;27.676;2022-11-20T02:06:59;3.38;;;3.38;;
64678;SDS011;51094;53.864;27.676;2022-11-20T02:09:27;3.58;;;3.58;;
64678;SDS011;51094;53.864;27.676;2022-11-20T02:11:54;3.45;;;3.45;;
64678;SDS011;51094;53.864;27.676;2022-11-20T02:14:21;3.90;;;3.90;;
64678;SDS011;51094;53.864;27.676;2022-11-20T02:16:49;3.75;;;3.75;;
64678;SDS011;51094;53.864;27.676;2022-11-20T02:22:07;3.75;;;3.75;;
64678;SDS011;51094;53.864;27.676;2022-11-20T02:24:38;4.55;;;4.45;;
64678;SDS011;51094;53.864;27.676;2022-11-20T02:27:07;4.00;;;3.95;;
64678;SDS011;51094;53.864;27.676;2022-11-20T02:29:37;3.78;;;3.78;;
64678;SDS011;51094;53.864;27.676;2022-11-20T02:32:17;3.50;;;3.50;;
64678;SDS011;51094;53.864;27.676;2022-11-20T02:34:48;3.67;;;3.67;;
64678;SDS011;51094;53.864;27.676;2022-11-20T02:37:15;3.60;;;3.60;;
64678;SDS011;51094;53.864;27.676;2022-11-20T02:39:43;3.80;;;3.80;;
64678;SDS011;51094;53.864;27.676;2022-11-20T02:42:15;3.60;;;3.60;;
64678;SDS011;51094;53.864;27.676;2022-11-20T02:44:42;3.47;;;3.47;;
64678;SDS011;51094;53.864;27.676;2022-11-20T02:47:08;3.50;;;3.50;;
64678;SDS011;51094;53.864;27.676;2022-11-20T02:49:35;3.38;;;3.35;;
64678;SDS011;51094;53.864;27.676;2022-11-20T02:52:02;3.20;;;3.20;;
64678;SDS011;51094;53.864;27.676;2022-11-20T02:54:29;3.20;;;3.20;;
64678;SDS011;51094;53.864;27.676;2022-11-20T02:56:56;3.38;;;3.38;;
64678;SDS011;51094;53.864;27.676;2022-11-20T02:59:22;3.50;;;3.50;;
64678;SDS011;51094;53.864;27.676;2022-11-20T03:01:49;3.45;;;3.45;;
64678;SDS011;51094;53.864;27.676;2022-11-20T03:04:16;4.70;;;4.60;;
64678;SDS011;51094;53.864;27.676;2022-11-20T03:06:43;3.92;;;3.85;;
64678;SDS011;51094;53.864;27.676;2022-11-20T03:09:10;3.65;;;3.65;;
64678;SDS011;51094;53.864;27.676;2022-11-20T03:11:36;3.40;;;3.40;;
64678;SDS011;51094;53.864;27.676;2022-11-20T03:14:03;3.67;;;3.67;;
64678;SDS011;51094;53.864;27.676;2022-11-20T03:16:31;3.22;;;3.22;;
64678;SDS011;51094;53.864;27.676;2022-11-20T03:18:59;3.13;;;3.13;;
64678;SDS011;51094;53.864;27.676;2022-11-20T03:21:26;3.30;;;3.30;;
64678;SDS011;51094;53.864;27.676;2022-11-20T03:23:53;3.38;;;3.38;;
64678;SDS011;51094;53.864;27.676;2022-11-20T03:26:22;3.00;;;3.00;;
64678;SDS011;51094;53.864;27.676;2022-11-20T03:28:51;3.85;;;3.85;;
64678;SDS011;51094;53.864;27.676;2022-11-20T03:31:23;3.00;;;3.00;;
64678;SDS011;51094;53.864;27.676;2022-11-20T03:33:52;3.57;;;3.57;;
64678;SDS011;51094;53.864;27.676;2022-11-20T03:36:19;3.70;;;3.70;;
64678;SDS011;51094;53.864;27.676;2022-11-20T03:38:47;3.20;;;3.20;;
64678;SDS011;51094;53.864;27.676;2022-11-20T03:41:24;3.78;;;3.78;;
64678;SDS011;51094;53.864;27.676;2022-11-20T03:43:57;3.20;;;3.20;;
64678;SDS011;51094;53.864;27.676;2022-11-20T03:46:25;2.95;;;2.95;;
64678;SDS011;51094;53.864;27.676;2022-11-20T03:48:53;3.20;;;3.20;;
64678;SDS011;51094;53.864;27.676;2022-11-20T03:53:49;2.95;;;2.95;;
64678;SDS011;51094;53.864;27.676;2022-11-20T03:56:19;3.20;;;3.20;;
64678;SDS011;51094;53.864;27.676;2022-11-20T03:58:47;3.42;;;3.42;;
64678;SDS011;51094;53.864;27.676;2022-11-20T04:01:15;3.13;;;3.13;;
64678;SDS011;51094;53.864;27.676;2022-11-20T04:03:44;2.92;;;2.92;;
64678;SDS011;51094;53.864;27.676;2022-11-20T04:06:13;3.38;;;3.38;;
64678;SDS011;51094;53.864;27.676;2022-11-20T04:08:45;2.95;;;2.95;;
64678;SDS011;51094;53.864;27.676;2022-11-20T04:11:21;3.15;;;3.15;;
64678;SDS011;51094;53.864;27.676;2022-11-20T04:13:50;3.28;;;3.28;;
64678;SDS011;51094;53.864;27.676;2022-11-20T04:16:18;3.53;;;3.53;;
64678;SDS011;51094;53.864;27.676;2022-11-20T04:18:46;3.58;;;3.58;;
64678;SDS011;51094;53.864;27.676;2022-11-20T04:21:12;3.38;;;3.38;;
64678;SDS011;51094;53.864;27.676;2022-11-20T04:23:39;3.63;;;3.63;;
64678;SDS011;51094;53.864;27.676;2022-11-20T04:26:07;3.70;;;3.70;;
64678;SDS011;51094;53.864;27.676;2022-11-20T04:28:36;3.70;;;3.70;;
64678;SDS011;51094;53.864;27.676;2022-11-20T04:31:13;3.70;;;3.70;;
64678;SDS011;51094;53.864;27.676;2022-11-20T04:33:44;3.90;;;3.90;;
64678;SDS011;51094;53.864;27.676;2022-11-20T04:36:15;3.80;;;3.70;;
64678;SDS011;51094;53.864;27.676;2022-11-20T04:38:44;3.70;;;3.70;;
64678;SDS011;51094;53.864;27.676;2022-11-20T04:41:13;3.47;;;3.47;;
64678;SDS011;51094;53.864;27.676;2022-11-20T04:43:45;3.92;;;3.83;;
64678;SDS011;51094;53.864;27.676;2022-11-20T04:46:12;3.60;;;3.60;;
64678;SDS011;51094;53.864;27.676;2022-11-20T04:48:39;3.83;;;3.83;;
64678;SDS011;51094;53.864;27.676;2022-11-20T04:51:06;3.97;;;3.88;;
64678;SDS011;51094;53.864;27.676;2022-11-20T04:53:32;3.85;;;3.75;;
64678;SDS011;51094;53.864;27.676;2022-11-20T04:56:00;3.33;;;3.33;;
64678;SDS011;51094;53.864;27.676;2022-11-20T04:58:28;3.65;;;3.65;;
64678;SDS011;51094;53.864;27.676;2022-11-20T05:01:00;3.40;;;3.40;;
64678;SDS011;51094;53.864;27.676;2022-11-20T05:03:31;3.30;;;3.30;;
64678;SDS011;51094;53.864;27.676;2022-11-20T05:06:02;3.67;;;3.67;;
64678;SDS011;51094;53.864;27.676;2022-11-20T05:08:30;3.40;;;3.40;;
64678;SDS011;51094;53.864;27.676;2022-11-20T05:11:04;3.80;;;3.80;;
64678;SDS011;51094;53.864;27.676;2022-11-20T05:13:33;3.72;;;3.70;;
64678;SDS011;51094;53.864;27.676;2022-11-20T05:16:07;3.75;;;3.75;;
64678;SDS011;51094;53.864;27.676;2022-11-20T05:18:36;3.50;;;3.50;;
64678;SDS011;51094;53.864;27.676;2022-11-20T05:21:03;3.10;;;3.10;;
64678;SDS011;51094;53.864;27.676;2022-11-20T05:23:30;3.53;;;3.53;;
64678;SDS011;51094;53.864;27.676;2022-11-20T05:25:58;3.30;;;3.30;;
64678;SDS011;51094;53.864;27.676;2022-11-20T05:28:25;3.45;;;3.45;;
64678;SDS011;51094;53.864;27.676;2022-11-20T05:30:53;3.33;;;3.33;;
64678;SDS011;51094;53.864;27.676;2022-11-20T05:33:20;3.10;;;3.10;;
64678;SDS011;51094;53.864;27.676;2022-11-20T05:35:47;3.40;;;3.40;;
64678;SDS011;51094;53.864;27.676;2022-11-20T05:38:15;3.13;;;3.13;;
64678;SDS011;51094;53.864;27.676;2022-11-20T05:40:42;3.20;;;3.20;;
64678;SDS011;51094;53.864;27.676;2022-11-20T05:43:09;3.50;;;3.50;;
64678;SDS011;51094;53.864;27.676;2022-11-20T05:45:36;3.60;;;3.60;;
64678;SDS011;51094;53.864;27.676;2022-11-20T05:48:02;3.40;;;3.40;;
64678;SDS011;51094;53.864;27.676;2022-11-20T05:50:29;3.70;;;3.60;;
64678;SDS011;51094;53.864;27.676;2022-11-20T05:52:59;3.22;;;3.22;;
64678;SDS011;51094;53.864;27.676;2022-11-20T05:55:26;3.30;;;3.30;;
64678;SDS011;51094;53.864;27.676;2022-11-20T05:57:54;3.20;;;3.20;;
64678;SDS011;51094;53.864;27.676;2022-11-20T06:00:21;3.25;;;3.22;;
64678;SDS011;51094;53.864;27.676;2022-11-20T06:02:48;3.17;;;3.17;;
64678;SDS011;51094;53.864;27.676;2022-11-20T06:05:15;3.28;;;3.28;;
64678;SDS011;51094;53.864;27.676;2022-11-20T06:07:42;3.50;;;3.50;;
64678;SDS011;51094;53.864;27.676;2022-11-20T06:10:09;3.60;;;3.60;;
64678;SDS011;51094;53.864;27.676;2022-11-20T06:12:37;3.10;;;3.10;;
64678;SDS011;51094;53.864;27.676;2022-11-20T06:15:04;3.30;;;3.30;;
64678;SDS011;51094;53.864;27.676;2022-11-20T06:17:31;3.25;;;3.25;;
64678;SDS011;51094;53.864;27.676;2022-11-20T06:19:58;3.45;;;3.45;;
64678;SDS011;51094;53.864;27.676;2022-11-20T06:22:25;3.30;;;3.30;;
64678;SDS011;51094;53.864;27.676;2022-11-20T06:24:52;3.22;;;3.22;;
64678;SDS011;51094;53.864;27.676;2022-11-20T06:27:18;3.33;;;3.33;;
64678;SDS011;51094;53.864;27.676;2022-11-20T06:29:45;3.35;;;3.35;;
64678;SDS011;51094;53.864;27.676;2022-11-20T06:32:12;3.08;;;3.08;;
64678;SDS011;51094;53.864;27.676;2022-11-20T06:34:38;3.30;;;3.30;;
64678;SDS011;51094;53.864;27.676;2022-11-20T06:37:05;3.20;;;3.20;;
64678;SDS011;51094;53.864;27.676;2022-11-20T06:39:32;5.30;;;5.20;;
64678;SDS011;51094;53.864;27.676;2022-11-20T06:41:58;4.03;;;3.92;;
64678;SDS011;51094;53.864;27.676;2022-11-20T06:44:25;3.33;;;3.33;;
64678;SDS011;51094;53.864;27.676;2022-11-20T06:46:52;3.58;;;3.58;;
64678;SDS011;51094;53.864;27.676;2022-11-20T06:49:19;3.70;;;3.70;;
64678;SDS011;51094;53.864;27.676;2022-11-20T06:51:46;3.47;;;3.47;;
64678;SDS011;51094;53.864;27.676;2022-11-20T06:54:13;3.10;;;3.10;;
64678;SDS011;51094;53.864;27.676;2022-11-20T06:56:40;3.20;;;3.20;;
64678;SDS011;51094;53.864;27.676;2022-11-20T06:59:07;3.38;;;3.38;;
64678;SDS011;51094;53.864;27.676;2022-11-20T07:01:34;3.38;;;3.38;;
64678;SDS011;51094;53.864;27.676;2022-11-20T07:04:01;3.63;;;3.53;;
64678;SDS011;51094;53.864;27.676;2022-11-20T07:06:29;3.22;;;3.22;;
64678;SDS011;51094;53.864;27.676;2022-11-20T07:08:56;3.25;;;3.25;;
64678;SDS011;51094;53.864;27.676;2022-11-20T07:11:23;3.20;;;3.20;;
64678;SDS011;51094;53.864;27.676;2022-11-20T07:13:50;3.55;;;3.55;;
64678;SDS011;51094;53.864;27.676;2022-11-20T07:16:17;3.22;;;3.22;;
64678;SDS011;51094;53.864;27.676;2022-11-20T07:18:44;3.40;;;3.40;;
64678;SDS011;51094;53.864;27.676;2022-11-20T07:21:16;3.90;;;3.85;;
64678;SDS011;51094;53.864;27.676;2022-11-20T07:23:42;4.25;;;4.20;;
64678;SDS011;51094;53.864;27.676;2022-11-20T07:26:10;3.60;;;3.60;;
64678;SDS011;51094;53.864;27.676;2022-11-20T07:28:37;3.92;;;3.83;;
64678;SDS011;51094;53.864;27.676;2022-11-20T07:31:04;3.70;;;3.70;;
64678;SDS011;51094;53.864;27.676;2022-11-20T07:33:33;3.78;;;3.67;;
64678;SDS011;51094;53.864;27.676;2022-11-20T07:36:00;3.63;;;3.63;;
64678;SDS011;51094;53.864;27.676;2022-11-20T07:38:27;3.58;;;3.47;;
64678;SDS011;51094;53.864;27.676;2022-11-20T07:40:57;3.58;;;3.47;;
64678;SDS011;51094;53.864;27.676;2022-11-20T07:43:24;3.53;;;3.53;;
64678;SDS011;51094;53.864;27.676;2022-11-20T07:45:51;4.45;;;4.35;;
64678;SDS011;51094;53.864;27.676;2022-11-20T07:48:18;4.03;;;3.92;;
64678;SDS011;51094;53.864;27.676;2022-11-20T07:50:45;4.57;;;4.47;;
64678;SDS011;51094;53.864;27.676;2022-11-20T07:53:12;4.90;;;4.80;;
64678;SDS011;51094;53.864;27.676;2022-11-20T07:55:43;3.97;;;3.88;;
64678;SDS011;51094;53.864;27.676;2022-11-20T07:58:10;3.33;;;3.33;;
64678;SDS011;51094;53.864;27.676;2022-11-20T08:00:37;3.17;;;3.17;;
64678;SDS011;51094;53.864;27.676;2022-11-20T08:03:06;3.40;;;3.40;;
64678;SDS011;51094;53.864;27.676;2022-11-20T08:05:36;3.30;;;3.30;;
64678;SDS011;51094;53.864;27.676;2022-11-20T08:08:06;3.60;;;3.60;;
64678;SDS011;51094;53.864;27.676;2022-11-20T08:13:00;3.70;;;3.60;;
64678;SDS011;51094;53.864;27.676;2022-11-20T08:15:49;3.60;;;3.60;;
64678;SDS011;51094;53.864;27.676;2022-11-20T08:18:17;3.70;;;3.60;;
64678;SDS011;51094;53.864;27.676;2022-11-20T08:21:03;3.83;;;3.72;;
64678;SDS011;51094;53.864;27.676;2022-11-20T08:23:30;3.58;;;3.47;;
64678;SDS011;51094;53.864;27.676;2022-11-20T08:25:57;4.10;;;4.00;;
64678;SDS011;51094;53.864;27.676;2022-11-20T08:28:24;3.60;;;3.60;;
64678;SDS011;51094;53.864;27.676;2022-11-20T08:30:50;3.40;;;3.40;;
64678;SDS011;51094;53.864;27.676;2022-11-20T08:33:17;3.22;;;3.22;;
64678;SDS011;51094;53.864;27.676;2022-11-20T08:35:45;3.22;;;3.22;;
64678;SDS011;51094;53.864;27.676;2022-11-20T08:38:12;2.97;;;2.97;;
64678;SDS011;51094;53.864;27.676;2022-11-20T08:40:39;3.47;;;3.47;;
64678;SDS011;51094;53.864;27.676;2022-11-20T08:43:05;3.28;;;3.28;;
64678;SDS011;51094;53.864;27.676;2022-11-20T08:45:32;3.38;;;3.38;;
64678;SDS011;51094;53.864;27.676;2022-11-20T08:48:03;3.65;;;3.65;;
64678;SDS011;51094;53.864;27.676;2022-11-20T08:50:31;3.38;;;3.38;;
64678;SDS011;51094;53.864;27.676;2022-11-20T08:53:05;3.70;;;3.70;;
64678;SDS011;51094;53.864;27.676;2022-11-20T08:55:32;3.40;;;3.40;;
64678;SDS011;51094;53.864;27.676;2022-11-20T08:58:05;3.47;;;3.47;;
64678;SDS011;51094;53.864;27.676;2022-11-20T09:03:00;3.40;;;3.40;;
64678;SDS011;51094;53.864;27.676;2022-11-20T09:05:27;3.45;;;3.40;;
64678;SDS011;51094;53.864;27.676;2022-11-20T09:07:57;3.20;;;3.20;;
64678;SDS011;51094;53.864;27.676;2022-11-20T09:10:28;3.50;;;3.50;;
64678;SDS011;51094;53.864;27.676;2022-11-20T09:12:55;3.47;;;3.47;;
64678;SDS011;51094;53.864;27.676;2022-11-20T09:15:22;3.70;;;3.70;;
64678;SDS011;51094;53.864;27.676;2022-11-20T09:17:50;3.55;;;3.55;;
64678;SDS011;51094;53.864;27.676;2022-11-20T09:20:24;3.00;;;3.00;;
64678;SDS011;51094;53.864;27.676;2022-11-20T09:22:53;3.20;;;3.20;;
64678;SDS011;51094;53.864;27.676;2022-11-20T09:25:20;2.83;;;2.83;;
64678;SDS011;51094;53.864;27.676;2022-11-20T09:27:47;3.00;;;3.00;;
64678;SDS011;51094;53.864;27.676;2022-11-20T09:30:14;2.95;;;2.95;;
64678;SDS011;51094;53.864;27.676;2022-11-20T09:32:41;2.80;;;2.80;;
64678;SDS011;51094;53.864;27.676;2022-11-20T09:35:09;2.83;;;2.83;;
64678;SDS011;51094;53.864;27.676;2022-11-20T09:37:37;3.10;;;3.10;;
64678;SDS011;51094;53.864;27.676;2022-11-20T09:40:04;2.90;;;2.90;;
64678;SDS011;51094;53.864;27.676;2022-11-20T09:45:18;3.05;;;3.05;;
64678;SDS011;51094;53.864;27.676;2022-11-20T09:56:46;3.25;;;3.25;;
64678;SDS011;51094;53.864;27.676;2022-11-20T10:02:11;3.05;;;3.05;;
64678;SDS011;51094;53.864;27.676;2022-11-20T10:04:47;3.17;;;3.17;;
64678;SDS011;51094;53.864;27.676;2022-11-20T10:07:21;3.25;;;3.25;;
64678;SDS011;51094;53.864;27.676;2022-11-20T10:09:58;3.65;;;3.65;;
64678;SDS011;51094;53.864;27.676;2022-11-20T10:18:07;3.40;;;3.30;;
64678;SDS011;51094;53.864;27.676;2022-11-20T10:26:17;3.17;;;3.17;;
64678;SDS011;51094;53.864;27.676;2022-11-20T10:34:19;3.40;;;3.40;;
64678;SDS011;51094;53.864;27.676;2022-11-20T10:36:54;3.40;;;3.40;;
64678;SDS011;51094;53.864;27.676;2022-11-20T10:41:59;3.67;;;3.67;;
64678;SDS011;51094;53.864;27.676;2022-11-20T10:44:27;3.17;;;3.17;;
64678;SDS011;51094;53.864;27.676;2022-11-20T10:47:21;3.10;;;3.10;;
64678;SDS011;51094;53.864;27.676;2022-11-20T10:49:50;3.00;;;3.00;;
64678;SDS011;51094;53.864;27.676;2022-11-20T10:52:34;3.10;;;3.10;;
64678;SDS011;51094;53.864;27.676;2022-11-20T10:55:18;3.17;;;3.17;;
64678;SDS011;51094;53.864;27.676;2022-11-20T11:00:18;3.30;;;3.30;;
64678;SDS011;51094;53.864;27.676;2022-11-20T11:07:49;3.53;;;3.53;;
64678;SDS011;51094;53.864;27.676;2022-11-20T11:13:02;3.22;;;3.22;;
64678;SDS011;51094;53.864;27.676;2022-11-20T11:15:39;3.22;;;3.22;;
64678;SDS011;51094;53.864;27.676;2022-11-20T11:18:08;3.08;;;3.05;;
64678;SDS011;51094;53.864;27.676;2022-11-20T11:20:49;2.90;;;2.90;;
64678;SDS011;51094;53.864;27.676;2022-11-20T11:25:57;3.00;;;3.00;;
64678;SDS011;51094;53.864;27.676;2022-11-20T11:28:25;3.30;;;3.30;;
64678;SDS011;51094;53.864;27.676;2022-11-20T11:30:54;3.28;;;3.28;;
64678;SDS011;51094;53.864;27.676;2022-11-20T11:33:25;3.30;;;3.30;;
64678;SDS011;51094;53.864;27.676;2022-11-20T11:35:53;3.28;;;3.28;;
64678;SDS011;51094;53.864;27.676;2022-11-20T11:38:39;3.75;;;3.75;;
64678;SDS011;51094;53.864;27.676;2022-11-20T11:41:12;3.20;;;3.20;;
64678;SDS011;51094;53.864;27.676;2022-11-20T11:43:54;3.10;;;3.10;;
64678;SDS011;51094;53.864;27.676;2022-11-20T11:46:50;3.55;;;3.50;;
64678;SDS011;51094;53.864;27.676;2022-11-20T11:49:22;3.50;;;3.50;;
64678;SDS011;51094;53.864;27.676;2022-11-20T11:51:57;3.38;;;3.38;;
64678;SDS011;51094;53.864;27.676;2022-11-20T11:57:15;3.40;;;3.40;;
64678;SDS011;51094;53.864;27.676;2022-11-20T12:00:00;3.55;;;3.55;;
64678;SDS011;51094;53.864;27.676;2022-11-20T12:02:53;3.92;;;3.92;;
64678;SDS011;51094;53.864;27.676;2022-11-20T12:05:39;4.00;;;4.00;;
64678;SDS011;51094;53.864;27.676;2022-11-20T12:08:15;3.80;;;3.80;;
64678;SDS011;51094;53.864;27.676;2022-11-20T12:10:57;3.50;;;3.50;;
64678;SDS011;51094;53.864;27.676;2022-11-20T12:16:00;3.30;;;3.30;;
64678;SDS011;51094;53.864;27.676;2022-11-20T12:18:32;2.80;;;2.80;;
64678;SDS011;51094;53.864;27.676;2022-11-20T12:23:34;2.85;;;2.85;;
64678;SDS011;51094;53.864;27.676;2022-11-20T12:34:47;3.15;;;3.15;;
64678;SDS011;51094;53.864;27.676;2022-11-20T12:37:36;3.35;;;3.35;;
64678;SDS011;51094;53.864;27.676;2022-11-20T12:40:30;3.08;;;3.08;;
64678;SDS011;51094;53.864;27.676;2022-11-20T12:43:23;2.85;;;2.85;;
64678;SDS011;51094;53.864;27.676;2022-11-20T12:49:18;2.88;;;2.88;;
64678;SDS011;51094;53.864;27.676;2022-11-20T12:55:35;2.47;;;2.47;;
64678;SDS011;51094;53.864;27.676;2022-11-20T12:57:51;2.78;;;2.78;;
64678;SDS011;51094;53.864;27.676;2022-11-20T13:00:24;2.67;;;2.67;;
64678;SDS011;51094;53.864;27.676;2022-11-20T13:03:00;2.78;;;2.78;;
64678;SDS011;51094;53.864;27.676;2022-11-20T13:06:16;2.65;;;2.65;;
64678;SDS011;51094;53.864;27.676;2022-11-20T13:08:48;2.65;;;2.65;;
64678;SDS011;51094;53.864;27.676;2022-11-20T13:11:25;2.40;;;2.40;;
64678;SDS011;51094;53.864;27.676;2022-11-20T13:14:04;2.50;;;2.50;;
64678;SDS011;51094;53.864;27.676;2022-11-20T13:19:32;2.80;;;2.80;;
64678;SDS011;51094;53.864;27.676;2022-11-20T13:22:00;2.72;;;2.72;;
64678;SDS011;51094;53.864;27.676;2022-11-20T13:24:28;2.78;;;2.78;;
64678;SDS011;51094;53.864;27.676;2022-11-20T13:27:00;2.80;;;2.80;;
64678;SDS011;51094;53.864;27.676;2022-11-20T13:32:06;2.70;;;2.70;;
64678;SDS011;51094;53.864;27.676;2022-11-20T13:34:50;3.05;;;3.05;;
64678;SDS011;51094;53.864;27.676;2022-11-20T13:37:31;3.20;;;3.20;;
64678;SDS011;51094;53.864;27.676;2022-11-20T13:42:53;2.70;;;2.70;;
64678;SDS011;51094;53.864;27.676;2022-11-20T13:45:39;2.60;;;2.60;;
64678;SDS011;51094;53.864;27.676;2022-11-20T13:48:20;2.40;;;2.40;;
64678;SDS011;51094;53.864;27.676;2022-11-20T13:53:43;2.65;;;2.65;;
64678;SDS011;51094;53.864;27.676;2022-11-20T14:02:18;2.55;;;2.55;;
64678;SDS011;51094;53.864;27.676;2022-11-20T14:04:48;2.80;;;2.80;;
64678;SDS011;51094;53.864;27.676;2022-11-20T14:07:21;2.70;;;2.70;;
64678;SDS011;51094;53.864;27.676;2022-11-20T14:09:55;2.72;;;2.72;;
64678;SDS011;51094;53.864;27.676;2022-11-20T14:12:27;2.80;;;2.80;;
64678;SDS011;51094;53.864;27.676;2022-11-20T14:14:56;2.63;;;2.63;;
64678;SDS011;51094;53.864;27.676;2022-11-20T14:17:33;2.83;;;2.83;;
64678;SDS011;51094;53.864;27.676;2022-11-20T14:20:05;2.60;;;2.60;;
64678;SDS011;51094;53.864;27.676;2022-11-20T14:22:38;2.90;;;2.90;;
64678;SDS011;51094;53.864;27.676;2022-11-20T14:27:45;2.55;;;2.55;;
64678;SDS011;51094;53.864;27.676;2022-11-20T14:30:19;2.72;;;2.72;;
64678;SDS011;51094;53.864;27.676;2022-11-20T14:32:48;3.00;;;3.00;;
64678;SDS011;51094;53.864;27.676;2022-11-20T14:35:26;3.00;;;3.00;;
64678;SDS011;51094;53.864;27.676;2022-11-20T14:37:56;2.97;;;2.97;;
64678;SDS011;51094;53.864;27.676;2022-11-20T14:40:33;3.03;;;3.03;;
64678;SDS011;51094;53.864;27.676;2022-11-20T14:43:04;2.80;;;2.80;;
64678;SDS011;51094;53.864;27.676;2022-11-20T14:45:49;3.08;;;3.08;;
64678;SDS011;51094;53.864;27.676;2022-11-20T14:48:32;3.00;;;3.00;;
64678;SDS011;51094;53.864;27.676;2022-11-20T14:51:04;2.75;;;2.75;;
64678;SDS011;51094;53.864;27.676;2022-11-20T14:53:31;2.80;;;2.80;;
64678;SDS011;51094;53.864;27.676;2022-11-20T14:55:59;2.75;;;2.75;;
64678;SDS011;51094;53.864;27.676;2022-11-20T14:58:29;2.90;;;2.90;;
64678;SDS011;51094;53.864;27.676;2022-11-20T15:01:02;2.55;;;2.55;;
64678;SDS011;51094;53.864;27.676;2022-11-20T15:03:38;2.70;;;2.70;;
64678;SDS011;51094;53.864;27.676;2022-11-20T15:06:07;2.70;;;2.70;;
64678;SDS011;51094;53.864;27.676;2022-11-20T15:08:37;2.50;;;2.50;;
64678;SDS011;51094;53.864;27.676;2022-11-20T15:11:14;2.80;;;2.80;;
64678;SDS011;51094;53.864;27.676;2022-11-20T15:13:44;2.70;;;2.70;;
64678;SDS011;51094;53.864;27.676;2022-11-20T15:16:21;2.95;;;2.95;;
64678;SDS011;51094;53.864;27.676;2022-11-20T15:18:49;2.58;;;2.58;;
64678;SDS011;51094;53.864;27.676;2022-11-20T15:21:18;3.10;;;3.10;;
64678;SDS011;51094;53.864;27.676;2022-11-20T15:23:47;3.03;;;3.03;;
64678;SDS011;51094;53.864;27.676;2022-11-20T15:26:20;3.30;;;3.30;;
64678;SDS011;51094;53.864;27.676;2022-11-20T15:28:51;3.47;;;3.38;;
64678;SDS011;51094;53.864;27.676;2022-11-20T15:31:19;3.20;;;3.20;;
64678;SDS011;51094;53.864;27.676;2022-11-20T15:33:48;3.67;;;3.67;;
64678;SDS011;51094;53.864;27.676;2022-11-20T15:36:15;3.50;;;3.40;;
64678;SDS011;51094;53.864;27.676;2022-11-20T15:38:42;3.30;;;3.30;;
64678;SDS011;51094;53.864;27.676;2022-11-20T15:41:08;3.38;;;3.38;;
64678;SDS011;51094;53.864;27.676;2022-11-20T15:43:36;3.47;;;3.47;;
64678;SDS011;51094;53.864;27.676;2022-11-20T15:46:09;3.03;;;3.03;;
64678;SDS011;51094;53.864;27.676;2022-11-20T15:48:40;2.95;;;2.95;;
64678;SDS011;51094;53.864;27.676;2022-11-20T15:51:21;3.28;;;3.17;;
64678;SDS011;51094;53.864;27.676;2022-11-20T15:53:52;3.10;;;3.10;;
64678;SDS011;51094;53.864;27.676;2022-11-20T15:56:21;3.42;;;3.42;;
64678;SDS011;51094;53.864;27.676;2022-11-20T15:58:48;3.17;;;3.10;;
64678;SDS011;51094;53.864;27.676;2022-11-20T16:01:16;3.15;;;3.15;;
64678;SDS011;51094;53.864;27.676;2022-11-20T16:03:45;4.20;;;4.10;;
64678;SDS011;51094;53.864;27.676;2022-11-20T16:06:12;3.92;;;3.83;;
64678;SDS011;51094;53.864;27.676;2022-11-20T16:08:39;3.15;;;3.15;;
64678;SDS011;51094;53.864;27.676;2022-11-20T16:11:06;3.00;;;3.00;;
64678;SDS011;51094;53.864;27.676;2022-11-20T16:15:57;2.80;;;2.80;;
64678;SDS011;51094;53.864;27.676;2022-11-20T16:18:25;3.00;;;3.00;;
64678;SDS011;51094;53.864;27.676;2022-11-20T16:20:53;2.92;;;2.92;;
64678;SDS011;51094;53.864;27.676;2022-11-20T16:23:20;2.80;;;2.80;;
64678;SDS011;51094;53.864;27.676;2022-11-20T16:25:48;3.10;;;3.10;;
64678;SDS011;51094;53.864;27.676;2022-11-20T16:28:16;2.80;;;2.80;;
64678;SDS011;51094;53.864;27.676;2022-11-20T16:30:45;2.65;;;2.65;;
64678;SDS011;51094;53.864;27.676;2022-11-20T16:33:13;2.90;;;2.90;;
64678;SDS011;51094;53.864;27.676;2022-11-20T16:35:42;2.80;;;2.80;;
64678;SDS011;51094;53.864;27.676;2022-11-20T16:38:09;2.78;;;2.78;;